Terminal Aerodrome Forecast
Issued by NWS

Current Version | Previous Version | Graphics & Text | Print | Product List | Glossary Off
Versions: 1 2 3 4 5 6 7 8 9 10 11 12 13 14 15 16 17 18 19 20 21 22 23 24

000
FTUS41 KPBZ 271300 AAA
TAFHLG
TAF AMD
KHLG 271335Z 2714/2812 30004KT 6SM BR OVC040
     FM271500 29005KT 3SM -SHSN BR OVC025
      TEMPO 2716/2718 2SM -SHSN BKN015
     FM272100 30008KT P6SM VCSH OVC035=

USA.gov is the U.S. government's official web portal to all federal, state and local government web resources and services.